Shefford, Canada
Current Conditions -  °F | °C
As of 10:15 PM on Thursday 18 Dec 2014 (Local Time) from KEFK Reporting Station
Haze Haze  
Wind Chill: 20°   Ceiling: 900
Heat Index: 27°   Visibility: 5mi
Dew Point: 25°   Wind: 6mph
Humidity: 93%   Direction: 300°WNW
Pressure: 29.86"   Gusts: NA
Location:  45.42°N, 72.58°W
Report Text: KEFK 190315Z AUTO 30005KT 5SM BR BKN009 OVC016 M03/M04 A2986 RMK AO2 T10301040
Loading
Personal Weather Stations






























Interactive Weather Map New forecast layout! Learn more

10-Day Weather Forecast

Advertisements
Track Severe Weather on mobile